<?xml version="1.0" encoding="UTF-8" standalone="no" ?>
<gpx xmlns="http://www.topografix.com/GPX/1/1" xmlns:xsi="http://www.w3.org/2001/XMLSchema-instance" xsi:schemaLocation="http://www.topografix.com/GPX/1/1 http://www.topografix.com/GPX/1/1/gpx.xsd" version="1.1" creator="VisuGPX - https://www.visugpx.com">
  <metadata>
    <name>Vacances 2021</name>
  </metadata>
  <trk>
    <name><![CDATA[Journal actif: 2021-08-05 15:56]]></name>
    <trkseg>
      <trkpt lat="45.67449" lon="0.16036">
        <ele>24.65</ele>
        <time>2021-08-05T17:56:16Z</time>
      </trkpt>
      <trkpt lat="45.67449" lon="0.16036">
        <ele>24.65</ele>
        <time>2021-08-05T17:58:09Z</time>
      </trkpt>
      <trkpt lat="45.6745" lon="0.16038">
        <ele>24.17</ele>
        <time>2021-08-05T18:01:07Z</time>
      </trkpt>
      <trkpt lat="45.6745" lon="0.1604">
        <ele>23.69</ele>
        <time>2021-08-05T18:01:54Z</time>
      </trkpt>
      <trkpt lat="45.67456" lon="0.16046">
        <ele>23.21</ele>
        <time>2021-08-05T18:01:59Z</time>
      </trkpt>
      <trkpt lat="45.67456" lon="0.16046">
        <ele>23.21</ele>
        <time>2021-08-05T18:02:00Z</time>
      </trkpt>
      <trkpt lat="45.67459" lon="0.16046">
        <ele>23.21</ele>
        <time>2021-08-05T18:02:01Z</time>
      </trkpt>
      <trkpt lat="45.67512" lon="0.16045">
        <ele>26.09</ele>
        <time>2021-08-05T18:02:12Z</time>
      </trkpt>
      <trkpt lat="45.67599" lon="0.16">
        <ele>27.53</ele>
        <time>2021-08-05T18:02:25Z</time>
      </trkpt>
      <trkpt lat="45.67626" lon="0.1598">
        <ele>27.53</ele>
        <time>2021-08-05T18:02:32Z</time>
      </trkpt>
      <trkpt lat="45.6763" lon="0.15982">
        <ele>27.53</ele>
        <time>2021-08-05T18:02:33Z</time>
      </trkpt>
      <trkpt lat="45.67633" lon="0.15984">
        <ele>27.05</ele>
        <time>2021-08-05T18:02:34Z</time>
      </trkpt>
      <trkpt lat="45.6766" lon="0.16044">
        <ele>28.98</ele>
        <time>2021-08-05T18:02:43Z</time>
      </trkpt>
      <trkpt lat="45.67663" lon="0.1605">
        <ele>28.98</ele>
        <time>2021-08-05T18:02:44Z</time>
      </trkpt>
      <trkpt lat="45.67665" lon="0.16055">
        <ele>28.98</ele>
        <time>2021-08-05T18:02:45Z</time>
      </trkpt>
      <trkpt lat="45.67672" lon="0.16057">
        <ele>28.98</ele>
        <time>2021-08-05T18:02:46Z</time>
      </trkpt>
      <trkpt lat="45.67677" lon="0.16054">
        <ele>28.98</ele>
        <time>2021-08-05T18:02:47Z</time>
      </trkpt>
      <trkpt lat="45.67688" lon="0.16049">
        <ele>29.46</ele>
        <time>2021-08-05T18:02:48Z</time>
      </trkpt>
      <trkpt lat="45.67688" lon="0.16049">
        <ele>29.46</ele>
        <time>2021-08-05T18:02:49Z</time>
      </trkpt>
      <trkpt lat="45.67788" lon="0.16011">
        <ele>30.42</ele>
        <time>2021-08-05T18:03:03Z</time>
      </trkpt>
      <trkpt lat="45.67798" lon="0.16003">
        <ele>30.42</ele>
        <time>2021-08-05T18:03:04Z</time>
      </trkpt>
      <trkpt lat="45.67798" lon="0.16003">
        <ele>30.42</ele>
        <time>2021-08-05T18:03:05Z</time>
      </trkpt>
      <trkpt lat="45.67799" lon="0.15999">
        <ele>30.42</ele>
        <time>2021-08-05T18:03:06Z</time>
      </trkpt>
      <trkpt lat="45.67801" lon="0.15992">
        <ele>30.42</ele>
        <time>2021-08-05T18:03:07Z</time>
      </trkpt>
      <trkpt lat="45.67804" lon="0.15977">
        <ele>30.42</ele>
        <time>2021-08-05T18:03:09Z</time>
      </trkpt>
      <trkpt lat="45.67806" lon="0.15969">
        <ele>30.42</ele>
        <time>2021-08-05T18:03:10Z</time>
      </trkpt>
      <trkpt lat="45.67806" lon="0.15952">
        <ele>29.94</ele>
        <time>2021-08-05T18:03:11Z</time>
      </trkpt>
      <trkpt lat="45.67806" lon="0.15952">
        <ele>29.94</ele>
        <time>2021-08-05T18:03:12Z</time>
      </trkpt>
      <trkpt lat="45.67806" lon="0.15938">
        <ele>29.94</ele>
        <time>2021-08-05T18:03:13Z</time>
      </trkpt>
      <trkpt lat="45.67809" lon="0.15931">
        <ele>29.94</ele>
        <time>2021-08-05T18:03:16Z</time>
      </trkpt>
      <trkpt lat="45.6781" lon="0.15927">
        <ele>29.46</ele>
        <time>2021-08-05T18:03:17Z</time>
      </trkpt>
      <trkpt lat="45.67811" lon="0.15926">
        <ele>29.46</ele>
        <time>2021-08-05T18:03:18Z</time>
      </trkpt>
      <trkpt lat="45.67814" lon="0.15926">
        <ele>29.94</ele>
        <time>2021-08-05T18:03:19Z</time>
      </trkpt>
      <trkpt lat="45.67817" lon="0.15926">
        <ele>29.94</ele>
        <time>2021-08-05T18:03:20Z</time>
      </trkpt>
      <trkpt lat="45.67821" lon="0.15926">
        <ele>29.94</ele>
        <time>2021-08-05T18:03:21Z</time>
      </trkpt>
      <trkpt lat="45.67872" lon="0.15924">
        <ele>31.86</ele>
        <time>2021-08-05T18:03:31Z</time>
      </trkpt>
      <trkpt lat="45.67874" lon="0.15924">
        <ele>32.34</ele>
        <time>2021-08-05T18:03:47Z</time>
      </trkpt>
      <trkpt lat="45.67874" lon="0.15924">
        <ele>32.34</ele>
        <time>2021-08-05T18:04:09Z</time>
      </trkpt>
      <trkpt lat="45.67877" lon="0.15924">
        <ele>32.34</ele>
        <time>2021-08-05T18:04:10Z</time>
      </trkpt>
      <trkpt lat="45.67877" lon="0.15921">
        <ele>32.34</ele>
        <time>2021-08-05T18:04:11Z</time>
      </trkpt>
      <trkpt lat="45.67877" lon="0.15919">
        <ele>32.34</ele>
        <time>2021-08-05T18:04:12Z</time>
      </trkpt>
      <trkpt lat="45.67877" lon="0.15916">
        <ele>31.86</ele>
        <time>2021-08-05T18:04:13Z</time>
      </trkpt>
      <trkpt lat="45.67877" lon="0.15911">
        <ele>31.86</ele>
        <time>2021-08-05T18:04:14Z</time>
      </trkpt>
      <trkpt lat="45.67873" lon="0.15815">
        <ele>30.42</ele>
        <time>2021-08-05T18:04:26Z</time>
      </trkpt>
      <trkpt lat="45.67869" lon="0.15726">
        <ele>28.98</ele>
        <time>2021-08-05T18:04:37Z</time>
      </trkpt>
      <trkpt lat="45.67876" lon="0.15711">
        <ele>28.98</ele>
        <time>2021-08-05T18:04:40Z</time>
      </trkpt>
      <trkpt lat="45.67877" lon="0.15703">
        <ele>28.98</ele>
        <time>2021-08-05T18:04:41Z</time>
      </trkpt>
      <trkpt lat="45.67875" lon="0.15697">
        <ele>28.98</ele>
        <time>2021-08-05T18:04:42Z</time>
      </trkpt>
      <trkpt lat="45.67866" lon="0.15683">
        <ele>28.5</ele>
        <time>2021-08-05T18:04:43Z</time>
      </trkpt>
      <trkpt lat="45.67865" lon="0.15673">
        <ele>28.02</ele>
        <time>2021-08-05T18:04:44Z</time>
      </trkpt>
      <trkpt lat="45.67864" lon="0.15662">
        <ele>28.02</ele>
        <time>2021-08-05T18:04:45Z</time>
      </trkpt>
      <trkpt lat="45.67864" lon="0.15662">
        <ele>27.53</ele>
        <time>2021-08-05T18:04:46Z</time>
      </trkpt>
      <trkpt lat="45.67864" lon="0.15651">
        <ele>27.05</ele>
        <time>2021-08-05T18:04:47Z</time>
      </trkpt>
      <trkpt lat="45.67857" lon="0.15531">
        <ele>25.13</ele>
        <time>2021-08-05T18:04:58Z</time>
      </trkpt>
      <trkpt lat="45.67853" lon="0.15459">
        <ele>27.05</ele>
        <time>2021-08-05T18:05:07Z</time>
      </trkpt>
      <trkpt lat="45.67846" lon="0.15311">
        <ele>25.61</ele>
        <time>2021-08-05T18:05:16Z</time>
      </trkpt>
      <trkpt lat="45.67829" lon="0.15">
        <ele>24.17</ele>
        <time>2021-08-05T18:05:33Z</time>
      </trkpt>
      <trkpt lat="45.67827" lon="0.14971">
        <ele>24.17</ele>
        <time>2021-08-05T18:05:35Z</time>
      </trkpt>
      <trkpt lat="45.67826" lon="0.14957">
        <ele>24.17</ele>
        <time>2021-08-05T18:05:36Z</time>
      </trkpt>
      <trkpt lat="45.67838" lon="0.14934">
        <ele>23.69</ele>
        <time>2021-08-05T18:05:38Z</time>
      </trkpt>
      <trkpt lat="45.6784" lon="0.14922">
        <ele>23.69</ele>
        <time>2021-08-05T18:05:39Z</time>
      </trkpt>
      <trkpt lat="45.67838" lon="0.1491">
        <ele>23.69</ele>
        <time>2021-08-05T18:05:40Z</time>
      </trkpt>
      <trkpt lat="45.67834" lon="0.14902">
        <ele>23.69</ele>
        <time>2021-08-05T18:05:42Z</time>
      </trkpt>
      <trkpt lat="45.6782" lon="0.14878">
        <ele>23.21</ele>
        <time>2021-08-05T18:05:43Z</time>
      </trkpt>
      <trkpt lat="45.6782" lon="0.14865">
        <ele>23.69</ele>
        <time>2021-08-05T18:05:44Z</time>
      </trkpt>
      <trkpt lat="45.67812" lon="0.14698">
        <ele>23.21</ele>
        <time>2021-08-05T18:05:53Z</time>
      </trkpt>
      <trkpt lat="45.67797" lon="0.14471">
        <ele>28.5</ele>
        <time>2021-08-05T18:06:05Z</time>
      </trkpt>
      <trkpt lat="45.67795" lon="0.14452">
        <ele>28.98</ele>
        <time>2021-08-05T18:06:07Z</time>
      </trkpt>
      <trkpt lat="45.67794" lon="0.14444">
        <ele>29.46</ele>
        <time>2021-08-05T18:06:08Z</time>
      </trkpt>
      <trkpt lat="45.67793" lon="0.14441">
        <ele>29.94</ele>
        <time>2021-08-05T18:06:09Z</time>
      </trkpt>
      <trkpt lat="45.67805" lon="0.14426">
        <ele>30.42</ele>
        <time>2021-08-05T18:06:11Z</time>
      </trkpt>
      <trkpt lat="45.67808" lon="0.14418">
        <ele>30.9</ele>
        <time>2021-08-05T18:06:12Z</time>
      </trkpt>
      <trkpt lat="45.67805" lon="0.14402">
        <ele>31.38</ele>
        <time>2021-08-05T18:06:13Z</time>
      </trkpt>
      <trkpt lat="45.67795" lon="0.14388">
        <ele>31.86</ele>
        <time>2021-08-05T18:06:14Z</time>
      </trkpt>
      <trkpt lat="45.67788" lon="0.14382">
        <ele>32.34</ele>
        <time>2021-08-05T18:06:15Z</time>
      </trkpt>
      <trkpt lat="45.67783" lon="0.14373">
        <ele>32.34</ele>
        <time>2021-08-05T18:06:16Z</time>
      </trkpt>
      <trkpt lat="45.67783" lon="0.14373">
        <ele>32.82</ele>
        <time>2021-08-05T18:06:17Z</time>
      </trkpt>
      <trkpt lat="45.67779" lon="0.14363">
        <ele>31.38</ele>
        <time>2021-08-05T18:06:18Z</time>
      </trkpt>
      <trkpt lat="45.67736" lon="0.14217">
        <ele>38.59</ele>
        <time>2021-08-05T18:06:27Z</time>
      </trkpt>
      <trkpt lat="45.67668" lon="0.13952">
        <ele>53.01</ele>
        <time>2021-08-05T18:06:40Z</time>
      </trkpt>
      <trkpt lat="45.67668" lon="0.1393">
        <ele>54.45</ele>
        <time>2021-08-05T18:06:41Z</time>
      </trkpt>
      <trkpt lat="45.67669" lon="0.1391">
        <ele>55.41</ele>
        <time>2021-08-05T18:06:42Z</time>
      </trkpt>
      <trkpt lat="45.67671" lon="0.13891">
        <ele>55.89</ele>
        <time>2021-08-05T18:06:43Z</time>
      </trkpt>
      <trkpt lat="45.67674" lon="0.13876">
        <ele>56.86</ele>
        <time>2021-08-05T18:06:44Z</time>
      </trkpt>
      <trkpt lat="45.67678" lon="0.1386">
        <ele>57.34</ele>
        <time>2021-08-05T18:06:45Z</time>
      </trkpt>
      <trkpt lat="45.67687" lon="0.13832">
        <ele>56.37</ele>
        <time>2021-08-05T18:06:48Z</time>
      </trkpt>
      <trkpt lat="45.67689" lon="0.13825">
        <ele>55.89</ele>
        <time>2021-08-05T18:06:49Z</time>
      </trkpt>
      <trkpt lat="45.67691" lon="0.13819">
        <ele>55.89</ele>
        <time>2021-08-05T18:06:50Z</time>
      </trkpt>
      <trkpt lat="45.67698" lon="0.13805">
        <ele>55.89</ele>
        <time>2021-08-05T18:06:52Z</time>
      </trkpt>
      <trkpt lat="45.67701" lon="0.13784">
        <ele>55.89</ele>
        <time>2021-08-05T18:06:53Z</time>
      </trkpt>
      <trkpt lat="45.67701" lon="0.13784">
        <ele>56.37</ele>
        <time>2021-08-05T18:06:54Z</time>
      </trkpt>
      <trkpt lat="45.67696" lon="0.13749">
        <ele>56.37</ele>
        <time>2021-08-05T18:06:56Z</time>
      </trkpt>
      <trkpt lat="45.67696" lon="0.13749">
        <ele>56.86</ele>
        <time>2021-08-05T18:06:57Z</time>
      </trkpt>
      <trkpt lat="45.67697" lon="0.13735">
        <ele>57.34</ele>
        <time>2021-08-05T18:06:58Z</time>
      </trkpt>
      <trkpt lat="45.67698" lon="0.13721">
        <ele>56.86</ele>
        <time>2021-08-05T18:06:59Z</time>
      </trkpt>
      <trkpt lat="45.677" lon="0.13706">
        <ele>56.37</ele>
        <time>2021-08-05T18:07:00Z</time>
      </trkpt>
      <trkpt lat="45.67706" lon="0.13689">
        <ele>56.86</ele>
        <time>2021-08-05T18:07:01Z</time>
      </trkpt>
      <trkpt lat="45.67712" lon="0.13674">
        <ele>56.86</ele>
        <time>2021-08-05T18:07:02Z</time>
      </trkpt>
      <trkpt lat="45.67718" lon="0.13658">
        <ele>56.37</ele>
        <time>2021-08-05T18:07:03Z</time>
      </trkpt>
      <trkpt lat="45.67727" lon="0.13643">
        <ele>56.37</ele>
        <time>2021-08-05T18:07:04Z</time>
      </trkpt>
      <trkpt lat="45.67738" lon="0.13628">
        <ele>56.86</ele>
        <time>2021-08-05T18:07:05Z</time>
      </trkpt>
      <trkpt lat="45.67861" lon="0.13479">
        <ele>58.78</ele>
        <time>2021-08-05T18:07:15Z</time>
      </trkpt>
      <trkpt lat="45.67967" lon="0.13431">
        <ele>59.26</ele>
        <time>2021-08-05T18:07:22Z</time>
      </trkpt>
      <trkpt lat="45.67979" lon="0.13422">
        <ele>59.74</ele>
        <time>2021-08-05T18:07:23Z</time>
      </trkpt>
      <trkpt lat="45.6799" lon="0.13413">
        <ele>60.7</ele>
        <time>2021-08-05T18:07:24Z</time>
      </trkpt>
      <trkpt lat="45.67995" lon="0.13409">
        <ele>61.18</ele>
        <time>2021-08-05T18:07:25Z</time>
      </trkpt>
      <trkpt lat="45.68" lon="0.13388">
        <ele>62.14</ele>
        <time>2021-08-05T18:07:26Z</time>
      </trkpt>
      <trkpt lat="45.68004" lon="0.13371">
        <ele>63.1</ele>
        <time>2021-08-05T18:07:27Z</time>
      </trkpt>
      <trkpt lat="45.68005" lon="0.13355">
        <ele>64.07</ele>
        <time>2021-08-05T18:07:28Z</time>
      </trkpt>
      <trkpt lat="45.68003" lon="0.13338">
        <ele>65.03</ele>
        <time>2021-08-05T18:07:29Z</time>
      </trkpt>
      <trkpt lat="45.68002" lon="0.13324">
        <ele>65.03</ele>
        <time>2021-08-05T18:07:30Z</time>
      </trkpt>
      <trkpt lat="45.68" lon="0.13311">
        <ele>65.03</ele>
        <time>2021-08-05T18:07:31Z</time>
      </trkpt>
      <trkpt lat="45.67999" lon="0.13306">
        <ele>65.51</ele>
        <time>2021-08-05T18:07:32Z</time>
      </trkpt>
      <trkpt lat="45.68009" lon="0.13277">
        <ele>65.99</ele>
        <time>2021-08-05T18:07:34Z</time>
      </trkpt>
      <trkpt lat="45.68006" lon="0.13269">
        <ele>65.99</ele>
        <time>2021-08-05T18:07:35Z</time>
      </trkpt>
      <trkpt lat="45.68006" lon="0.13267">
        <ele>65.51</ele>
        <time>2021-08-05T18:07:36Z</time>
      </trkpt>
      <trkpt lat="45.67996" lon="0.13261">
        <ele>65.51</ele>
        <time>2021-08-05T18:07:37Z</time>
      </trkpt>
      <trkpt lat="45.67992" lon="0.13261">
        <ele>65.03</ele>
        <time>2021-08-05T18:07:38Z</time>
      </trkpt>
      <trkpt lat="45.67987" lon="0.13261">
        <ele>65.03</ele>
        <time>2021-08-05T18:07:39Z</time>
      </trkpt>
      <trkpt lat="45.67984" lon="0.13263">
        <ele>65.03</ele>
        <time>2021-08-05T18:07:40Z</time>
      </trkpt>
      <trkpt lat="45.6798" lon="0.13266">
        <ele>65.03</ele>
        <time>2021-08-05T18:07:41Z</time>
      </trkpt>
      <trkpt lat="45.67969" lon="0.13264">
        <ele>65.03</ele>
        <time>2021-08-05T18:07:42Z</time>
      </trkpt>
      <trkpt lat="45.67965" lon="0.1326">
        <ele>65.03</ele>
        <time>2021-08-05T18:07:43Z</time>
      </trkpt>
      <trkpt lat="45.67959" lon="0.13256">
        <ele>65.03</ele>
        <time>2021-08-05T18:07:44Z</time>
      </trkpt>
      <trkpt lat="45.6789" lon="0.13199">
        <ele>64.55</ele>
        <time>2021-08-05T18:07:53Z</time>
      </trkpt>
      <trkpt lat="45.67883" lon="0.13192">
        <ele>64.55</ele>
        <time>2021-08-05T18:07:54Z</time>
      </trkpt>
      <trkpt lat="45.67877" lon="0.13185">
        <ele>64.55</ele>
        <time>2021-08-05T18:07:55Z</time>
      </trkpt>
      <trkpt lat="45.67871" lon="0.13144">
        <ele>64.07</ele>
        <time>2021-08-05T18:07:57Z</time>
      </trkpt>
      <trkpt lat="45.67862" lon="0.13137">
        <ele>64.07</ele>
        <time>2021-08-05T18:07:58Z</time>
      </trkpt>
      <trkpt lat="45.67862" lon="0.13137">
        <ele>64.07</ele>
        <time>2021-08-05T18:07:59Z</time>
      </trkpt>
      <trkpt lat="45.67847" lon="0.13135">
        <ele>63.58</ele>
        <time>2021-08-05T18:08:00Z</time>
      </trkpt>
      <trkpt lat="45.67839" lon="0.13137">
        <ele>63.1</ele>
        <time>2021-08-05T18:08:01Z</time>
      </trkpt>
      <trkpt lat="45.67839" lon="0.13137">
        <ele>63.1</ele>
        <time>2021-08-05T18:08:02Z</time>
      </trkpt>
      <trkpt lat="45.67828" lon="0.13157">
        <ele>63.1</ele>
        <time>2021-08-05T18:08:03Z</time>
      </trkpt>
      <trkpt lat="45.67828" lon="0.13157">
        <ele>63.1</ele>
        <time>2021-08-05T18:08:04Z</time>
      </trkpt>
      <trkpt lat="45.67829" lon="0.13169">
        <ele>63.1</ele>
        <time>2021-08-05T18:08:05Z</time>
      </trkpt>
      <trkpt lat="45.67831" lon="0.1318">
        <ele>62.62</ele>
        <time>2021-08-05T18:08:06Z</time>
      </trkpt>
      <trkpt lat="45.67836" lon="0.1319">
        <ele>62.62</ele>
        <time>2021-08-05T18:08:07Z</time>
      </trkpt>
      <trkpt lat="45.6784" lon="0.13213">
        <ele>62.14</ele>
        <time>2021-08-05T18:08:08Z</time>
      </trkpt>
      <trkpt lat="45.6784" lon="0.13213">
        <ele>61.66</ele>
        <time>2021-08-05T18:08:09Z</time>
      </trkpt>
      <trkpt lat="45.67842" lon="0.13227">
        <ele>61.66</ele>
        <time>2021-08-05T18:08:10Z</time>
      </trkpt>
      <trkpt lat="45.67842" lon="0.13242">
        <ele>60.7</ele>
        <time>2021-08-05T18:08:11Z</time>
      </trkpt>
      <trkpt lat="45.67839" lon="0.13259">
        <ele>59.74</ele>
        <time>2021-08-05T18:08:12Z</time>
      </trkpt>
      <trkpt lat="45.67806" lon="0.13411">
        <ele>53.97</ele>
        <time>2021-08-05T18:08:20Z</time>
      </trkpt>
      <trkpt lat="45.67715" lon="0.13567">
        <ele>51.57</ele>
        <time>2021-08-05T18:08:27Z</time>
      </trkpt>
      <trkpt lat="45.67538" lon="0.1384">
        <ele>49.65</ele>
        <time>2021-08-05T18:08:41Z</time>
      </trkpt>
      <trkpt lat="45.67433" lon="0.1408">
        <ele>48.68</ele>
        <time>2021-08-05T18:08:51Z</time>
      </trkpt>
      <trkpt lat="45.67346" lon="0.1431">
        <ele>49.16</ele>
        <time>2021-08-05T18:09:01Z</time>
      </trkpt>
      <trkpt lat="45.67342" lon="0.14329">
        <ele>49.16</ele>
        <time>2021-08-05T18:09:02Z</time>
      </trkpt>
      <trkpt lat="45.6734" lon="0.14349">
        <ele>48.68</ele>
        <time>2021-08-05T18:09:03Z</time>
      </trkpt>
      <trkpt lat="45.67339" lon="0.14364">
        <ele>48.2</ele>
        <time>2021-08-05T18:09:04Z</time>
      </trkpt>
      <trkpt lat="45.67344" lon="0.14382">
        <ele>47.24</ele>
        <time>2021-08-05T18:09:05Z</time>
      </trkpt>
      <trkpt lat="45.6735" lon="0.144">
        <ele>46.28</ele>
        <time>2021-08-05T18:09:06Z</time>
      </trkpt>
      <trkpt lat="45.67354" lon="0.14412">
        <ele>45.8</ele>
        <time>2021-08-05T18:09:07Z</time>
      </trkpt>
      <trkpt lat="45.67365" lon="0.14423">
        <ele>44.36</ele>
        <time>2021-08-05T18:09:08Z</time>
      </trkpt>
      <trkpt lat="45.67376" lon="0.14429">
        <ele>44.36</ele>
        <time>2021-08-05T18:09:09Z</time>
      </trkpt>
      <trkpt lat="45.6739" lon="0.14437">
        <ele>43.88</ele>
        <time>2021-08-05T18:09:10Z</time>
      </trkpt>
      <trkpt lat="45.6742" lon="0.14439">
        <ele>42.92</ele>
        <time>2021-08-05T18:09:11Z</time>
      </trkpt>
      <trkpt lat="45.67436" lon="0.14437">
        <ele>42.44</ele>
        <time>2021-08-05T18:09:12Z</time>
      </trkpt>
      <trkpt lat="45.67503" lon="0.14431">
        <ele>39.07</ele>
        <time>2021-08-05T18:09:17Z</time>
      </trkpt>
      <trkpt lat="45.6752" lon="0.14434">
        <ele>39.55</ele>
        <time>2021-08-05T18:09:18Z</time>
      </trkpt>
      <trkpt lat="45.67535" lon="0.14444">
        <ele>40.03</ele>
        <time>2021-08-05T18:09:19Z</time>
      </trkpt>
      <trkpt lat="45.67551" lon="0.14454">
        <ele>40.51</ele>
        <time>2021-08-05T18:09:20Z</time>
      </trkpt>
      <trkpt lat="45.67563" lon="0.14468">
        <ele>39.07</ele>
        <time>2021-08-05T18:09:21Z</time>
      </trkpt>
      <trkpt lat="45.67577" lon="0.14485">
        <ele>38.11</ele>
        <time>2021-08-05T18:09:22Z</time>
      </trkpt>
      <trkpt lat="45.67732" lon="0.1469">
        <ele>35.71</ele>
        <time>2021-08-05T18:09:32Z</time>
      </trkpt>
      <trkpt lat="45.68017" lon="0.15058">
        <ele>32.34</ele>
        <time>2021-08-05T18:09:48Z</time>
      </trkpt>
      <trkpt lat="45.68318" lon="0.15391">
        <ele>34.26</ele>
        <time>2021-08-05T18:10:03Z</time>
      </trkpt>
      <trkpt lat="45.68656" lon="0.15705">
        <ele>47.72</ele>
        <time>2021-08-05T18:10:19Z</time>
      </trkpt>
      <trkpt lat="45.6906" lon="0.16034">
        <ele>57.82</ele>
        <time>2021-08-05T18:10:38Z</time>
      </trkpt>
      <trkpt lat="45.69187" lon="0.1621">
        <ele>53.01</ele>
        <time>2021-08-05T18:10:45Z</time>
      </trkpt>
      <trkpt lat="45.69272" lon="0.16426">
        <ele>47.24</ele>
        <time>2021-08-05T18:10:52Z</time>
      </trkpt>
      <trkpt lat="45.69342" lon="0.16764">
        <ele>44.36</ele>
        <time>2021-08-05T18:11:02Z</time>
      </trkpt>
      <trkpt lat="45.69372" lon="0.17117">
        <ele>46.28</ele>
        <time>2021-08-05T18:11:12Z</time>
      </trkpt>
      <trkpt lat="45.69401" lon="0.17347">
        <ele>48.68</ele>
        <time>2021-08-05T18:11:20Z</time>
      </trkpt>
      <trkpt lat="45.69473" lon="0.17557">
        <ele>60.22</ele>
        <time>2021-08-05T18:11:27Z</time>
      </trkpt>
      <trkpt lat="45.69596" lon="0.17755">
        <ele>70.79</ele>
        <time>2021-08-05T18:11:35Z</time>
      </trkpt>
      <trkpt lat="45.69743" lon="0.17882">
        <ele>73.68</ele>
        <time>2021-08-05T18:11:42Z</time>
      </trkpt>
      <trkpt lat="45.69903" lon="0.17941">
        <ele>77.04</ele>
        <time>2021-08-05T18:11:49Z</time>
      </trkpt>
      <trkpt lat="45.7007" lon="0.17936">
        <ele>80.89</ele>
        <time>2021-08-05T18:11:56Z</time>
      </trkpt>
      <trkpt lat="45.70235" lon="0.17865">
        <ele>82.81</ele>
        <time>2021-08-05T18:12:03Z</time>
      </trkpt>
      <trkpt lat="45.70484" lon="0.17662">
        <ele>87.14</ele>
        <time>2021-08-05T18:12:15Z</time>
      </trkpt>
      <trkpt lat="45.70668" lon="0.17563">
        <ele>80.41</ele>
        <time>2021-08-05T18:12:23Z</time>
      </trkpt>
      <trkpt lat="45.70864" lon="0.17529">
        <ele>74.64</ele>
        <time>2021-08-05T18:12:31Z</time>
      </trkpt>
      <trkpt lat="45.71069" lon="0.17568">
        <ele>70.31</ele>
        <time>2021-08-05T18:12:39Z</time>
      </trkpt>
      <trkpt lat="45.71262" lon="0.17688">
        <ele>63.58</ele>
        <time>2021-08-05T18:12:47Z</time>
      </trkpt>
      <trkpt lat="45.71425" lon="0.17875">
        <ele>59.74</ele>
        <time>2021-08-05T18:12:55Z</time>
      </trkpt>
      <trkpt lat="45.71616" lon="0.1818">
        <ele>59.74</ele>
        <time>2021-08-05T18:13:06Z</time>
      </trkpt>
      <trkpt lat="45.71797" lon="0.18379">
        <ele>66.47</ele>
        <time>2021-08-05T18:13:15Z</time>
      </trkpt>
      <trkpt lat="45.72036" lon="0.18545">
        <ele>78.97</ele>
        <time>2021-08-05T18:13:26Z</time>
      </trkpt>
      <trkpt lat="45.72263" lon="0.18626">
        <ele>85.69</ele>
        <time>2021-08-05T18:13:36Z</time>
      </trkpt>
      <trkpt lat="45.72732" lon="0.18728">
        <ele>90.98</ele>
        <time>2021-08-05T18:13:56Z</time>
      </trkpt>
      <trkpt lat="45.73181" lon="0.18826">
        <ele>90.02</ele>
        <time>2021-08-05T18:14:15Z</time>
      </trkpt>
      <trkpt lat="45.73557" lon="0.189">
        <ele>88.58</ele>
        <time>2021-08-05T18:14:30Z</time>
      </trkpt>
      <trkpt lat="45.7382" lon="0.18886">
        <ele>85.69</ele>
        <time>2021-08-05T18:14:40Z</time>
      </trkpt>
      <trkpt lat="45.74095" lon="0.18848">
        <ele>80.41</ele>
        <time>2021-08-05T18:14:51Z</time>
      </trkpt>
      <trkpt lat="45.74397" lon="0.18806">
        <ele>65.99</ele>
        <time>2021-08-05T18:15:02Z</time>
      </trkpt>
      <trkpt lat="45.74726" lon="0.18784">
        <ele>65.51</ele>
        <time>2021-08-05T18:15:14Z</time>
      </trkpt>
      <trkpt lat="45.74961" lon="0.18847">
        <ele>73.2</ele>
        <time>2021-08-05T18:15:23Z</time>
      </trkpt>
      <trkpt lat="45.75179" lon="0.18965">
        <ele>78.48</ele>
        <time>2021-08-05T18:15:32Z</time>
      </trkpt>
      <trkpt lat="45.75542" lon="0.19202">
        <ele>82.81</ele>
        <time>2021-08-05T18:15:47Z</time>
      </trkpt>
      <trkpt lat="45.75769" lon="0.19283">
        <ele>88.58</ele>
        <time>2021-08-05T18:15:56Z</time>
      </trkpt>
      <trkpt lat="45.76014" lon="0.19297">
        <ele>97.71</ele>
        <time>2021-08-05T18:16:06Z</time>
      </trkpt>
      <trkpt lat="45.76269" lon="0.19228">
        <ele>105.4</ele>
        <time>2021-08-05T18:16:16Z</time>
      </trkpt>
      <trkpt lat="45.76749" lon="0.19028">
        <ele>114.05</ele>
        <time>2021-08-05T18:16:38Z</time>
      </trkpt>
      <trkpt lat="45.77095" lon="0.18924">
        <ele>115.5</ele>
        <time>2021-08-05T18:16:52Z</time>
      </trkpt>
      <trkpt lat="45.77263" lon="0.18954">
        <ele>115.98</ele>
        <time>2021-08-05T18:17:00Z</time>
      </trkpt>
      <trkpt lat="45.77542" lon="0.19001">
        <ele>103</ele>
        <time>2021-08-05T18:17:11Z</time>
      </trkpt>
      <trkpt lat="45.78059" lon="0.19038">
        <ele>96.75</ele>
        <time>2021-08-05T18:17:29Z</time>
      </trkpt>
      <trkpt lat="45.78465" lon="0.19053">
        <ele>103.96</ele>
        <time>2021-08-05T18:17:46Z</time>
      </trkpt>
      <trkpt lat="45.78688" lon="0.19006">
        <ele>105.4</ele>
        <time>2021-08-05T18:17:55Z</time>
      </trkpt>
      <trkpt lat="45.78922" lon="0.18884">
        <ele>102.04</ele>
        <time>2021-08-05T18:18:05Z</time>
      </trkpt>
      <trkpt lat="45.79229" lon="0.18705">
        <ele>99.63</ele>
        <time>2021-08-05T18:18:18Z</time>
      </trkpt>
      <trkpt lat="45.79471" lon="0.18649">
        <ele>107.81</ele>
        <time>2021-08-05T18:18:28Z</time>
      </trkpt>
      <trkpt lat="45.79693" lon="0.18661">
        <ele>112.13</ele>
        <time>2021-08-05T18:18:37Z</time>
      </trkpt>
      <trkpt lat="45.79918" lon="0.1874">
        <ele>107.81</ele>
        <time>2021-08-05T18:18:46Z</time>
      </trkpt>
      <trkpt lat="45.80228" lon="0.18916">
        <ele>111.65</ele>
        <time>2021-08-05T18:18:58Z</time>
      </trkpt>
      <trkpt lat="45.80577" lon="0.19114">
        <ele>124.63</ele>
        <time>2021-08-05T18:19:14Z</time>
      </trkpt>
      <trkpt lat="45.80864" lon="0.19217">
        <ele>137.61</ele>
        <time>2021-08-05T18:19:26Z</time>
      </trkpt>
      <trkpt lat="45.81169" lon="0.19268">
        <ele>142.89</ele>
        <time>2021-08-05T18:19:38Z</time>
      </trkpt>
      <trkpt lat="45.81528" lon="0.19295">
        <ele>146.74</ele>
        <time>2021-08-05T18:19:51Z</time>
      </trkpt>
      <trkpt lat="45.8177" lon="0.19312">
        <ele>148.66</ele>
        <time>2021-08-05T18:20:04Z</time>
      </trkpt>
      <trkpt lat="45.81923" lon="0.19323">
        <ele>147.7</ele>
        <time>2021-08-05T18:20:13Z</time>
      </trkpt>
      <trkpt lat="45.82079" lon="0.19334">
        <ele>142.41</ele>
        <time>2021-08-05T18:20:22Z</time>
      </trkpt>
      <trkpt lat="45.82317" lon="0.19333">
        <ele>132.32</ele>
        <time>2021-08-05T18:20:33Z</time>
      </trkpt>
      <trkpt lat="45.82582" lon="0.19269">
        <ele>124.15</ele>
        <time>2021-08-05T18:20:45Z</time>
      </trkpt>
      <trkpt lat="45.83023" lon="0.19148">
        <ele>114.53</ele>
        <time>2021-08-05T18:21:05Z</time>
      </trkpt>
      <trkpt lat="45.83423" lon="0.19039">
        <ele>110.21</ele>
        <time>2021-08-05T18:21:22Z</time>
      </trkpt>
      <trkpt lat="45.83958" lon="0.18893">
        <ele>109.73</ele>
        <time>2021-08-05T18:21:44Z</time>
      </trkpt>
      <trkpt lat="45.84637" lon="0.18706">
        <ele>103</ele>
        <time>2021-08-05T18:22:11Z</time>
      </trkpt>
      <trkpt lat="45.85016" lon="0.18603">
        <ele>95.79</ele>
        <time>2021-08-05T18:22:26Z</time>
      </trkpt>
      <trkpt lat="45.85411" lon="0.18495">
        <ele>102.04</ele>
        <time>2021-08-05T18:22:42Z</time>
      </trkpt>
      <trkpt lat="45.85835" lon="0.18369">
        <ele>100.11</ele>
        <time>2021-08-05T18:22:59Z</time>
      </trkpt>
      <trkpt lat="45.86138" lon="0.18317">
        <ele>103.96</ele>
        <time>2021-08-05T18:23:11Z</time>
      </trkpt>
      <trkpt lat="45.86335" lon="0.18357">
        <ele>106.84</ele>
        <time>2021-08-05T18:23:19Z</time>
      </trkpt>
      <trkpt lat="45.86613" lon="0.18503">
        <ele>102.04</ele>
        <time>2021-08-05T18:23:31Z</time>
      </trkpt>
      <trkpt lat="45.86988" lon="0.18695">
        <ele>82.33</ele>
        <time>2021-08-05T18:23:46Z</time>
      </trkpt>
      <trkpt lat="45.87226" lon="0.18753">
        <ele>66.95</ele>
        <time>2021-08-05T18:23:55Z</time>
      </trkpt>
      <trkpt lat="45.8758" lon="0.18813">
        <ele>61.18</ele>
        <time>2021-08-05T18:24:08Z</time>
      </trkpt>
      <trkpt lat="45.88113" lon="0.189">
        <ele>63.1</ele>
        <time>2021-08-05T18:24:28Z</time>
      </trkpt>
      <trkpt lat="45.88497" lon="0.18965">
        <ele>78.97</ele>
        <time>2021-08-05T18:24:45Z</time>
      </trkpt>
      <trkpt lat="45.88826" lon="0.19021">
        <ele>102.04</ele>
        <time>2021-08-05T18:25:00Z</time>
      </trkpt>
      <trkpt lat="45.89029" lon="0.19054">
        <ele>111.65</ele>
        <time>2021-08-05T18:25:11Z</time>
      </trkpt>
      <trkpt lat="45.89182" lon="0.1908">
        <ele>115.98</ele>
        <time>2021-08-05T18:25:20Z</time>
      </trkpt>
      <trkpt lat="45.89422" lon="0.19116">
        <ele>118.38</ele>
        <time>2021-08-05T18:25:30Z</time>
      </trkpt>
      <trkpt lat="45.89714" lon="0.19205">
        <ele>113.09</ele>
        <time>2021-08-05T18:25:43Z</time>
      </trkpt>
      <trkpt lat="45.89976" lon="0.1929">
        <ele>104.92</ele>
        <time>2021-08-05T18:25:55Z</time>
      </trkpt>
      <trkpt lat="45.90295" lon="0.19389">
        <ele>99.63</ele>
        <time>2021-08-05T18:26:08Z</time>
      </trkpt>
      <trkpt lat="45.90656" lon="0.19478">
        <ele>104.44</ele>
        <time>2021-08-05T18:26:22Z</time>
      </trkpt>
      <trkpt lat="45.91033" lon="0.19555">
        <ele>107.32</ele>
        <time>2021-08-05T18:26:36Z</time>
      </trkpt>
      <trkpt lat="45.9137" lon="0.19604">
        <ele>115.01</ele>
        <time>2021-08-05T18:26:49Z</time>
      </trkpt>
      <trkpt lat="45.91905" lon="0.19666">
        <ele>120.3</ele>
        <time>2021-08-05T18:27:10Z</time>
      </trkpt>
      <trkpt lat="45.9236" lon="0.19724">
        <ele>119.34</ele>
        <time>2021-08-05T18:27:28Z</time>
      </trkpt>
      <trkpt lat="45.92707" lon="0.19769">
        <ele>125.59</ele>
        <time>2021-08-05T18:27:42Z</time>
      </trkpt>
      <trkpt lat="45.93094" lon="0.1982">
        <ele>118.38</ele>
        <time>2021-08-05T18:27:57Z</time>
      </trkpt>
      <trkpt lat="45.93626" lon="0.19883">
        <ele>109.73</ele>
        <time>2021-08-05T18:28:18Z</time>
      </trkpt>
      <trkpt lat="45.93973" lon="0.1995">
        <ele>110.21</ele>
        <time>2021-08-05T18:28:31Z</time>
      </trkpt>
      <trkpt lat="45.94255" lon="0.19991">
        <ele>103.96</ele>
        <time>2021-08-05T18:28:43Z</time>
      </trkpt>
      <trkpt lat="45.94762" lon="0.20057">
        <ele>100.6</ele>
        <time>2021-08-05T18:29:03Z</time>
      </trkpt>
      <trkpt lat="45.95156" lon="0.20108">
        <ele>105.4</ele>
        <time>2021-08-05T18:29:19Z</time>
      </trkpt>
      <trkpt lat="45.95516" lon="0.20156">
        <ele>102.52</ele>
        <time>2021-08-05T18:29:35Z</time>
      </trkpt>
      <trkpt lat="45.9578" lon="0.20189">
        <ele>107.32</ele>
        <time>2021-08-05T18:29:48Z</time>
      </trkpt>
      <trkpt lat="45.96094" lon="0.2024">
        <ele>107.32</ele>
        <time>2021-08-05T18:30:03Z</time>
      </trkpt>
      <trkpt lat="45.9637" lon="0.20339">
        <ele>106.84</ele>
        <time>2021-08-05T18:30:16Z</time>
      </trkpt>
      <trkpt lat="45.96695" lon="0.20487">
        <ele>100.11</ele>
        <time>2021-08-05T18:30:31Z</time>
      </trkpt>
      <trkpt lat="45.96919" lon="0.20517">
        <ele>92.9</ele>
        <time>2021-08-05T18:30:41Z</time>
      </trkpt>
      <trkpt lat="45.97153" lon="0.20482">
        <ele>89.54</ele>
        <time>2021-08-05T18:30:52Z</time>
      </trkpt>
      <trkpt lat="45.97401" lon="0.20366">
        <ele>90.5</ele>
        <time>2021-08-05T18:31:04Z</time>
      </trkpt>
      <trkpt lat="45.97683" lon="0.20244">
        <ele>99.63</ele>
        <time>2021-08-05T18:31:18Z</time>
      </trkpt>
      <trkpt lat="45.98028" lon="0.20188">
        <ele>111.17</ele>
        <time>2021-08-05T18:31:34Z</time>
      </trkpt>
      <trkpt lat="45.9844" lon="0.20142">
        <ele>124.15</ele>
        <time>2021-08-05T18:31:53Z</time>
      </trkpt>
      <trkpt lat="45.98759" lon="0.20108">
        <ele>125.11</ele>
        <time>2021-08-05T18:32:07Z</time>
      </trkpt>
      <trkpt lat="45.99132" lon="0.20069">
        <ele>119.82</ele>
        <time>2021-08-05T18:32:24Z</time>
      </trkpt>
      <trkpt lat="45.99537" lon="0.20041">
        <ele>125.59</ele>
        <time>2021-08-05T18:32:43Z</time>
      </trkpt>
      <trkpt lat="45.99947" lon="0.20026">
        <ele>121.74</ele>
        <time>2021-08-05T18:33:00Z</time>
      </trkpt>
      <trkpt lat="46.00303" lon="0.20005">
        <ele>130.4</ele>
        <time>2021-08-05T18:33:15Z</time>
      </trkpt>
      <trkpt lat="46.00531" lon="0.1994">
        <ele>120.78</ele>
        <time>2021-08-05T18:33:26Z</time>
      </trkpt>
      <trkpt lat="46.00804" lon="0.19804">
        <ele>109.73</ele>
        <time>2021-08-05T18:33:38Z</time>
      </trkpt>
      <trkpt lat="46.01022" lon="0.19627">
        <ele>105.88</ele>
        <time>2021-08-05T18:33:49Z</time>
      </trkpt>
      <trkpt lat="46.01216" lon="0.19423">
        <ele>111.65</ele>
        <time>2021-08-05T18:33:59Z</time>
      </trkpt>
      <trkpt lat="46.01422" lon="0.19124">
        <ele>120.78</ele>
        <time>2021-08-05T18:34:11Z</time>
      </trkpt>
      <trkpt lat="46.01717" lon="0.18654">
        <ele>124.63</ele>
        <time>2021-08-05T18:34:29Z</time>
      </trkpt>
      <trkpt lat="46.01932" lon="0.18345">
        <ele>122.22</ele>
        <time>2021-08-05T18:34:41Z</time>
      </trkpt>
      <trkpt lat="46.02134" lon="0.18144">
        <ele>119.34</ele>
        <time>2021-08-05T18:34:51Z</time>
      </trkpt>
      <trkpt lat="46.02358" lon="0.18">
        <ele>116.46</ele>
        <time>2021-08-05T18:35:01Z</time>
      </trkpt>
      <trkpt lat="46.0263" lon="0.17914">
        <ele>115.98</ele>
        <time>2021-08-05T18:35:11Z</time>
      </trkpt>
      <trkpt lat="46.0289" lon="0.17904">
        <ele>113.09</ele>
        <time>2021-08-05T18:35:22Z</time>
      </trkpt>
      <trkpt lat="46.03172" lon="0.17977">
        <ele>109.73</ele>
        <time>2021-08-05T18:35:32Z</time>
      </trkpt>
      <trkpt lat="46.03391" lon="0.18102">
        <ele>104.44</ele>
        <time>2021-08-05T18:35:42Z</time>
      </trkpt>
      <trkpt lat="46.03644" lon="0.18324">
        <ele>98.19</ele>
        <time>2021-08-05T18:35:53Z</time>
      </trkpt>
      <trkpt lat="46.03923" lon="0.18655">
        <ele>94.35</ele>
        <time>2021-08-05T18:36:07Z</time>
      </trkpt>
      <trkpt lat="46.0417" lon="0.1904">
        <ele>95.31</ele>
        <time>2021-08-05T18:36:21Z</time>
      </trkpt>
      <trkpt lat="46.04392" lon="0.19418">
        <ele>104.44</ele>
        <time>2021-08-05T18:36:35Z</time>
      </trkpt>
      <trkpt lat="46.04583" lon="0.19636">
        <ele>113.57</ele>
        <time>2021-08-05T18:36:45Z</time>
      </trkpt>
      <trkpt lat="46.04765" lon="0.19767">
        <ele>120.3</ele>
        <time>2021-08-05T18:36:53Z</time>
      </trkpt>
      <trkpt lat="46.04985" lon="0.19838">
        <ele>123.67</ele>
        <time>2021-08-05T18:37:02Z</time>
      </trkpt>
      <trkpt lat="46.05388" lon="0.19888">
        <ele>126.55</ele>
        <time>2021-08-05T18:37:18Z</time>
      </trkpt>
      <trkpt lat="46.05871" lon="0.19948">
        <ele>128.47</ele>
        <time>2021-08-05T18:37:37Z</time>
      </trkpt>
      <trkpt lat="46.06217" lon="0.19981">
        <ele>136.16</ele>
        <time>2021-08-05T18:37:51Z</time>
      </trkpt>
      <trkpt lat="46.06515" lon="0.19946">
        <ele>135.68</ele>
        <time>2021-08-05T18:38:03Z</time>
      </trkpt>
      <trkpt lat="46.06816" lon="0.19843">
        <ele>133.76</ele>
        <time>2021-08-05T18:38:15Z</time>
      </trkpt>
      <trkpt lat="46.07431" lon="0.19585">
        <ele>131.36</ele>
        <time>2021-08-05T18:38:40Z</time>
      </trkpt>
      <trkpt lat="46.07662" lon="0.1942">
        <ele>130.4</ele>
        <time>2021-08-05T18:38:50Z</time>
      </trkpt>
      <trkpt lat="46.07954" lon="0.19138">
        <ele>134.24</ele>
        <time>2021-08-05T18:39:04Z</time>
      </trkpt>
      <trkpt lat="46.0813" lon="0.19018">
        <ele>140.49</ele>
        <time>2021-08-05T18:39:12Z</time>
      </trkpt>
      <trkpt lat="46.08323" lon="0.18962">
        <ele>145.3</ele>
        <time>2021-08-05T18:39:20Z</time>
      </trkpt>
      <trkpt lat="46.08532" lon="0.18982">
        <ele>147.22</ele>
        <time>2021-08-05T18:39:28Z</time>
      </trkpt>
      <trkpt lat="46.08715" lon="0.19064">
        <ele>145.3</ele>
        <time>2021-08-05T18:39:35Z</time>
      </trkpt>
      <trkpt lat="46.08957" lon="0.19204">
        <ele>155.39</ele>
        <time>2021-08-05T18:39:45Z</time>
      </trkpt>
      <trkpt lat="46.09155" lon="0.19248">
        <ele>164.04</ele>
        <time>2021-08-05T18:39:53Z</time>
      </trkpt>
      <trkpt lat="46.09353" lon="0.19222">
        <ele>167.41</ele>
        <time>2021-08-05T18:40:01Z</time>
      </trkpt>
      <trkpt lat="46.0974" lon="0.19096">
        <ele>158.75</ele>
        <time>2021-08-05T18:40:16Z</time>
      </trkpt>
      <trkpt lat="46.09965" lon="0.19026">
        <ele>153.95</ele>
        <time>2021-08-05T18:40:26Z</time>
      </trkpt>
      <trkpt lat="46.1025" lon="0.18936">
        <ele>135.68</ele>
        <time>2021-08-05T18:40:37Z</time>
      </trkpt>
      <trkpt lat="46.1062" lon="0.1882">
        <ele>128.95</ele>
        <time>2021-08-05T18:40:53Z</time>
      </trkpt>
      <trkpt lat="46.11193" lon="0.18644">
        <ele>128.95</ele>
        <time>2021-08-05T18:41:16Z</time>
      </trkpt>
      <trkpt lat="46.11743" lon="0.18477">
        <ele>125.11</ele>
        <time>2021-08-05T18:41:38Z</time>
      </trkpt>
      <trkpt lat="46.12233" lon="0.18328">
        <ele>125.11</ele>
        <time>2021-08-05T18:41:58Z</time>
      </trkpt>
      <trkpt lat="46.12591" lon="0.18205">
        <ele>125.59</ele>
        <time>2021-08-05T18:42:13Z</time>
      </trkpt>
      <trkpt lat="46.13056" lon="0.17978">
        <ele>121.74</ele>
        <time>2021-08-05T18:42:32Z</time>
      </trkpt>
      <trkpt lat="46.13283" lon="0.17834">
        <ele>124.63</ele>
        <time>2021-08-05T18:42:43Z</time>
      </trkpt>
      <trkpt lat="46.13542" lon="0.1761">
        <ele>122.22</ele>
        <time>2021-08-05T18:42:55Z</time>
      </trkpt>
      <trkpt lat="46.13757" lon="0.17489">
        <ele>119.34</ele>
        <time>2021-08-05T18:43:04Z</time>
      </trkpt>
      <trkpt lat="46.14014" lon="0.17428">
        <ele>121.26</ele>
        <time>2021-08-05T18:43:14Z</time>
      </trkpt>
      <trkpt lat="46.14265" lon="0.17449">
        <ele>124.63</ele>
        <time>2021-08-05T18:43:24Z</time>
      </trkpt>
      <trkpt lat="46.14608" lon="0.17516">
        <ele>124.63</ele>
        <time>2021-08-05T18:43:38Z</time>
      </trkpt>
      <trkpt lat="46.14862" lon="0.17505">
        <ele>122.22</ele>
        <time>2021-08-05T18:43:48Z</time>
      </trkpt>
      <trkpt lat="46.15161" lon="0.17421">
        <ele>124.15</ele>
        <time>2021-08-05T18:44:00Z</time>
      </trkpt>
      <trkpt lat="46.15689" lon="0.1726">
        <ele>124.15</ele>
        <time>2021-08-05T18:44:22Z</time>
      </trkpt>
      <trkpt lat="46.16173" lon="0.17113">
        <ele>125.11</ele>
        <time>2021-08-05T18:44:42Z</time>
      </trkpt>
      <trkpt lat="46.1672" lon="0.16947">
        <ele>127.03</ele>
        <time>2021-08-05T18:45:04Z</time>
      </trkpt>
      <trkpt lat="46.17228" lon="0.1679">
        <ele>127.51</ele>
        <time>2021-08-05T18:45:24Z</time>
      </trkpt>
      <trkpt lat="46.17662" lon="0.1666">
        <ele>132.32</ele>
        <time>2021-08-05T18:45:42Z</time>
      </trkpt>
      <trkpt lat="46.18141" lon="0.16512">
        <ele>132.32</ele>
        <time>2021-08-05T18:46:01Z</time>
      </trkpt>
      <trkpt lat="46.18608" lon="0.16373">
        <ele>140.01</ele>
        <time>2021-08-05T18:46:19Z</time>
      </trkpt>
      <trkpt lat="46.18899" lon="0.16336">
        <ele>136.64</ele>
        <time>2021-08-05T18:46:31Z</time>
      </trkpt>
      <trkpt lat="46.19356" lon="0.16304">
        <ele>138.57</ele>
        <time>2021-08-05T18:46:50Z</time>
      </trkpt>
      <trkpt lat="46.1985" lon="0.16264">
        <ele>133.76</ele>
        <time>2021-08-05T18:47:10Z</time>
      </trkpt>
      <trkpt lat="46.20064" lon="0.16193">
        <ele>131.84</ele>
        <time>2021-08-05T18:47:19Z</time>
      </trkpt>
      <trkpt lat="46.20444" lon="0.1603">
        <ele>127.51</ele>
        <time>2021-08-05T18:47:34Z</time>
      </trkpt>
      <trkpt lat="46.20683" lon="0.15985">
        <ele>129.92</ele>
        <time>2021-08-05T18:47:45Z</time>
      </trkpt>
      <trkpt lat="46.20971" lon="0.15996">
        <ele>132.8</ele>
        <time>2021-08-05T18:47:57Z</time>
      </trkpt>
      <trkpt lat="46.21284" lon="0.16055">
        <ele>131.36</ele>
        <time>2021-08-05T18:48:10Z</time>
      </trkpt>
      <trkpt lat="46.21763" lon="0.16157">
        <ele>130.88</ele>
        <time>2021-08-05T18:48:30Z</time>
      </trkpt>
      <trkpt lat="46.22147" lon="0.16236">
        <ele>136.16</ele>
        <time>2021-08-05T18:48:46Z</time>
      </trkpt>
      <trkpt lat="46.22571" lon="0.16324">
        <ele>136.64</ele>
        <time>2021-08-05T18:49:04Z</time>
      </trkpt>
      <trkpt lat="46.23004" lon="0.16413">
        <ele>129.92</ele>
        <time>2021-08-05T18:49:21Z</time>
      </trkpt>
      <trkpt lat="46.23579" lon="0.16529">
        <ele>127.03</ele>
        <time>2021-08-05T18:49:44Z</time>
      </trkpt>
      <trkpt lat="46.24033" lon="0.16609">
        <ele>130.88</ele>
        <time>2021-08-05T18:50:03Z</time>
      </trkpt>
      <trkpt lat="46.24273" lon="0.16591">
        <ele>127.51</ele>
        <time>2021-08-05T18:50:13Z</time>
      </trkpt>
      <trkpt lat="46.24745" lon="0.16512">
        <ele>124.15</ele>
        <time>2021-08-05T18:50:32Z</time>
      </trkpt>
      <trkpt lat="46.24972" lon="0.16517">
        <ele>124.63</ele>
        <time>2021-08-05T18:50:41Z</time>
      </trkpt>
      <trkpt lat="46.25213" lon="0.16592">
        <ele>125.59</ele>
        <time>2021-08-05T18:50:50Z</time>
      </trkpt>
      <trkpt lat="46.2543" lon="0.16728">
        <ele>132.32</ele>
        <time>2021-08-05T18:51:01Z</time>
      </trkpt>
      <trkpt lat="46.2578" lon="0.16948">
        <ele>141.93</ele>
        <time>2021-08-05T18:51:17Z</time>
      </trkpt>
      <trkpt lat="46.26029" lon="0.17023">
        <ele>143.85</ele>
        <time>2021-08-05T18:51:27Z</time>
      </trkpt>
      <trkpt lat="46.26537" lon="0.17127">
        <ele>147.22</ele>
        <time>2021-08-05T18:51:47Z</time>
      </trkpt>
      <trkpt lat="46.27008" lon="0.17221">
        <ele>143.37</ele>
        <time>2021-08-05T18:52:05Z</time>
      </trkpt>
      <trkpt lat="46.27539" lon="0.17327">
        <ele>145.3</ele>
        <time>2021-08-05T18:52:26Z</time>
      </trkpt>
      <trkpt lat="46.28038" lon="0.17426">
        <ele>146.74</ele>
        <time>2021-08-05T18:52:46Z</time>
      </trkpt>
      <trkpt lat="46.28485" lon="0.17496">
        <ele>144.82</ele>
        <time>2021-08-05T18:53:04Z</time>
      </trkpt>
      <trkpt lat="46.28828" lon="0.17487">
        <ele>143.85</ele>
        <time>2021-08-05T18:53:18Z</time>
      </trkpt>
      <trkpt lat="46.29306" lon="0.17405">
        <ele>131.36</ele>
        <time>2021-08-05T18:53:37Z</time>
      </trkpt>
      <trkpt lat="46.29594" lon="0.1739">
        <ele>119.34</ele>
        <time>2021-08-05T18:53:48Z</time>
      </trkpt>
      <trkpt lat="46.29838" lon="0.17435">
        <ele>112.13</ele>
        <time>2021-08-05T18:53:58Z</time>
      </trkpt>
      <trkpt lat="46.30075" lon="0.17549">
        <ele>109.25</ele>
        <time>2021-08-05T18:54:08Z</time>
      </trkpt>
      <trkpt lat="46.30504" lon="0.17808">
        <ele>118.86</ele>
        <time>2021-08-05T18:54:26Z</time>
      </trkpt>
      <trkpt lat="46.30773" lon="0.18022">
        <ele>127.51</ele>
        <time>2021-08-05T18:54:37Z</time>
      </trkpt>
      <trkpt lat="46.30932" lon="0.18239">
        <ele>127.99</ele>
        <time>2021-08-05T18:54:46Z</time>
      </trkpt>
      <trkpt lat="46.3114" lon="0.18512">
        <ele>115.98</ele>
        <time>2021-08-05T18:54:56Z</time>
      </trkpt>
      <trkpt lat="46.31313" lon="0.18636">
        <ele>112.13</ele>
        <time>2021-08-05T18:55:03Z</time>
      </trkpt>
      <trkpt lat="46.31492" lon="0.1869">
        <ele>121.26</ele>
        <time>2021-08-05T18:55:10Z</time>
      </trkpt>
      <trkpt lat="46.31809" lon="0.18691">
        <ele>134.24</ele>
        <time>2021-08-05T18:55:23Z</time>
      </trkpt>
      <trkpt lat="46.32244" lon="0.18673">
        <ele>137.13</ele>
        <time>2021-08-05T18:55:41Z</time>
      </trkpt>
      <trkpt lat="46.32785" lon="0.18652">
        <ele>142.41</ele>
        <time>2021-08-05T18:56:03Z</time>
      </trkpt>
      <trkpt lat="46.33227" lon="0.18634">
        <ele>140.01</ele>
        <time>2021-08-05T18:56:21Z</time>
      </trkpt>
      <trkpt lat="46.33666" lon="0.18616">
        <ele>131.84</ele>
        <time>2021-08-05T18:56:38Z</time>
      </trkpt>
      <trkpt lat="46.34191" lon="0.18595">
        <ele>130.4</ele>
        <time>2021-08-05T18:56:59Z</time>
      </trkpt>
      <trkpt lat="46.34722" lon="0.18583">
        <ele>126.07</ele>
        <time>2021-08-05T18:57:20Z</time>
      </trkpt>
      <trkpt lat="46.34924" lon="0.18647">
        <ele>124.15</ele>
        <time>2021-08-05T18:57:28Z</time>
      </trkpt>
      <trkpt lat="46.35107" lon="0.18781">
        <ele>125.11</ele>
        <time>2021-08-05T18:57:36Z</time>
      </trkpt>
      <trkpt lat="46.35494" lon="0.19208">
        <ele>124.63</ele>
        <time>2021-08-05T18:57:55Z</time>
      </trkpt>
      <trkpt lat="46.35871" lon="0.19638">
        <ele>127.03</ele>
        <time>2021-08-05T18:58:14Z</time>
      </trkpt>
      <trkpt lat="46.36058" lon="0.19944">
        <ele>127.51</ele>
        <time>2021-08-05T18:58:25Z</time>
      </trkpt>
      <trkpt lat="46.36304" lon="0.20364">
        <ele>125.11</ele>
        <time>2021-08-05T18:58:40Z</time>
      </trkpt>
      <trkpt lat="46.36477" lon="0.20571">
        <ele>124.63</ele>
        <time>2021-08-05T18:58:49Z</time>
      </trkpt>
      <trkpt lat="46.36689" lon="0.20741">
        <ele>125.11</ele>
        <time>2021-08-05T18:58:59Z</time>
      </trkpt>
      <trkpt lat="46.3692" lon="0.20844">
        <ele>127.03</ele>
        <time>2021-08-05T18:59:09Z</time>
      </trkpt>
      <trkpt lat="46.37235" lon="0.20915">
        <ele>127.99</ele>
        <time>2021-08-05T18:59:22Z</time>
      </trkpt>
      <trkpt lat="46.37489" lon="0.21034">
        <ele>128.95</ele>
        <time>2021-08-05T18:59:33Z</time>
      </trkpt>
      <trkpt lat="46.37755" lon="0.21247">
        <ele>133.76</ele>
        <time>2021-08-05T18:59:46Z</time>
      </trkpt>
      <trkpt lat="46.38065" lon="0.21524">
        <ele>127.99</ele>
        <time>2021-08-05T19:00:02Z</time>
      </trkpt>
      <trkpt lat="46.38506" lon="0.21922">
        <ele>112.13</ele>
        <time>2021-08-05T19:00:24Z</time>
      </trkpt>
      <trkpt lat="46.38786" lon="0.22176">
        <ele>104.44</ele>
        <time>2021-08-05T19:00:40Z</time>
      </trkpt>
      <trkpt lat="46.39128" lon="0.22486">
        <ele>103.96</ele>
        <time>2021-08-05T19:00:59Z</time>
      </trkpt>
      <trkpt lat="46.39474" lon="0.22799">
        <ele>106.36</ele>
        <time>2021-08-05T19:01:18Z</time>
      </trkpt>
      <trkpt lat="46.39826" lon="0.23116">
        <ele>102.52</ele>
        <time>2021-08-05T19:01:36Z</time>
      </trkpt>
      <trkpt lat="46.40281" lon="0.23527">
        <ele>105.4</ele>
        <time>2021-08-05T19:02:00Z</time>
      </trkpt>
      <trkpt lat="46.40664" lon="0.23873">
        <ele>100.11</ele>
        <time>2021-08-05T19:02:20Z</time>
      </trkpt>
      <trkpt lat="46.40988" lon="0.24167">
        <ele>106.84</ele>
        <time>2021-08-05T19:02:37Z</time>
      </trkpt>
      <trkpt lat="46.41335" lon="0.24475">
        <ele>103.96</ele>
        <time>2021-08-05T19:02:54Z</time>
      </trkpt>
      <trkpt lat="46.41708" lon="0.24818">
        <ele>102.52</ele>
        <time>2021-08-05T19:03:13Z</time>
      </trkpt>
      <trkpt lat="46.4224" lon="0.25306">
        <ele>97.71</ele>
        <time>2021-08-05T19:03:39Z</time>
      </trkpt>
      <trkpt lat="46.42697" lon="0.2572">
        <ele>82.81</ele>
        <time>2021-08-05T19:04:01Z</time>
      </trkpt>
      <trkpt lat="46.4297" lon="0.25987">
        <ele>100.6</ele>
        <time>2021-08-05T19:04:15Z</time>
      </trkpt>
      <trkpt lat="46.43212" lon="0.26256">
        <ele>114.05</ele>
        <time>2021-08-05T19:04:29Z</time>
      </trkpt>
      <trkpt lat="46.43388" lon="0.2638">
        <ele>116.46</ele>
        <time>2021-08-05T19:04:38Z</time>
      </trkpt>
      <trkpt lat="46.43581" lon="0.26444">
        <ele>120.3</ele>
        <time>2021-08-05T19:04:47Z</time>
      </trkpt>
      <trkpt lat="46.43925" lon="0.26487">
        <ele>121.74</ele>
        <time>2021-08-05T19:05:02Z</time>
      </trkpt>
      <trkpt lat="46.44297" lon="0.26533">
        <ele>125.11</ele>
        <time>2021-08-05T19:05:17Z</time>
      </trkpt>
      <trkpt lat="46.44883" lon="0.26602">
        <ele>131.36</ele>
        <time>2021-08-05T19:05:41Z</time>
      </trkpt>
      <trkpt lat="46.45309" lon="0.26652">
        <ele>125.59</ele>
        <time>2021-08-05T19:05:58Z</time>
      </trkpt>
      <trkpt lat="46.45565" lon="0.2668">
        <ele>122.71</ele>
        <time>2021-08-05T19:06:09Z</time>
      </trkpt>
      <trkpt lat="46.45963" lon="0.26726">
        <ele>125.11</ele>
        <time>2021-08-05T19:06:28Z</time>
      </trkpt>
      <trkpt lat="46.46317" lon="0.26765">
        <ele>127.51</ele>
        <time>2021-08-05T19:06:45Z</time>
      </trkpt>
      <trkpt lat="46.46704" lon="0.2681">
        <ele>135.68</ele>
        <time>2021-08-05T19:07:02Z</time>
      </trkpt>
      <trkpt lat="46.47079" lon="0.26857">
        <ele>139.53</ele>
        <time>2021-08-05T19:07:18Z</time>
      </trkpt>
      <trkpt lat="46.47339" lon="0.26928">
        <ele>138.09</ele>
        <time>2021-08-05T19:07:31Z</time>
      </trkpt>
      <trkpt lat="46.47717" lon="0.27038">
        <ele>127.51</ele>
        <time>2021-08-05T19:07:48Z</time>
      </trkpt>
      <trkpt lat="46.48083" lon="0.27143">
        <ele>126.55</ele>
        <time>2021-08-05T19:08:05Z</time>
      </trkpt>
      <trkpt lat="46.48495" lon="0.27261">
        <ele>135.2</ele>
        <time>2021-08-05T19:08:24Z</time>
      </trkpt>
      <trkpt lat="46.48881" lon="0.27372">
        <ele>124.63</ele>
        <time>2021-08-05T19:08:39Z</time>
      </trkpt>
      <trkpt lat="46.49181" lon="0.27494">
        <ele>120.3</ele>
        <time>2021-08-05T19:08:52Z</time>
      </trkpt>
      <trkpt lat="46.49503" lon="0.27715">
        <ele>125.11</ele>
        <time>2021-08-05T19:09:05Z</time>
      </trkpt>
      <trkpt lat="46.49685" lon="0.27812">
        <ele>131.84</ele>
        <time>2021-08-05T19:09:14Z</time>
      </trkpt>
      <trkpt lat="46.49899" lon="0.27849">
        <ele>135.68</ele>
        <time>2021-08-05T19:09:23Z</time>
      </trkpt>
      <trkpt lat="46.50162" lon="0.27793">
        <ele>134.24</ele>
        <time>2021-08-05T19:09:33Z</time>
      </trkpt>
      <trkpt lat="46.50405" lon="0.27757">
        <ele>131.36</ele>
        <time>2021-08-05T19:09:44Z</time>
      </trkpt>
      <trkpt lat="46.50694" lon="0.2781">
        <ele>128.95</ele>
        <time>2021-08-05T19:09:56Z</time>
      </trkpt>
      <trkpt lat="46.51175" lon="0.27901">
        <ele>117.9</ele>
        <time>2021-08-05T19:10:16Z</time>
      </trkpt>
      <trkpt lat="46.51441" lon="0.27887">
        <ele>108.77</ele>
        <time>2021-08-05T19:10:27Z</time>
      </trkpt>
    </trkseg>
  </trk>
</gpx>